Lincoln, Maine
Current Conditions -  °F | °C
As of 9:53 PM on Wednesday 22 Oct 2014 (Local Time) from KMLT Reporting Station
Light Rain Light Rain  
Wind Chill: 38°   Ceiling: 1300
Heat Index: 44°   Visibility: 10mi
Dew Point: 41°   Wind: 12mph
Humidity: 89%   Direction: 50°NE
Pressure: 30.22"   Gusts: 20mph
Location:  45.36°N, 68.5°W
Report Text: KMLT 230153Z AUTO 05010G17KT 10SM -RA OVC013 07/05 A3022 RMK AO2 RAE23B48 SLP242 P0000 T00670050
Loading
Personal Weather Stations






























Interactive Weather Map
Tropical Storm Tracking
New forecast layout! Learn more

10-Day Weather Forecast

Advertisements
Track Severe Weather on mobile